Time;durP1;ratioP1;P1;durP2;ratioP2;P2;SDS_P1;SDS_P2;PMS_P1;PMS_P2;Temp;Humidity;BMP_temperature;BMP_pressure;BME280_temperature;BME280_humidity;BME280_pressure;Samples;Min_cycle;Max_cycle;Signal;HPM_P1;HPM_P2
2022/06/19 00:00:42;;;;;;;;;;;;;;;27.87;27.42;100780.75;4422091;32;20839;-70
2022/06/19 00:03:11;;;;;;;;;;;;;;;27.93;27.26;100774.84;4421280;32;20284;-70
2022/06/19 00:05:37;;;;;;;;;;;;;;;28.11;27.21;100766.03;4421045;32;19973;-69
2022/06/19 00:08:03;;;;;;;;;;;;;;;28.04;27.28;100777.50;4420059;32;19994;-69
2022/06/19 00:10:29;;;;;;;;;;;;;;;27.60;27.91;100763.94;4421706;32;19958;-69
2022/06/19 00:12:55;;;;;;;;;;;;;;;27.57;27.83;100756.38;4420052;32;20004;-70
2022/06/19 00:15:20;;;;;;;;;;;;;;;27.59;27.79;100762.41;4421705;32;19992;-70
2022/06/19 00:17:48;;;;;;;;;;;;;;;27.84;27.22;100781.84;4419951;32;20375;-70
2022/06/19 00:20:14;;;;;;;;;;;;;;;27.57;27.76;100776.63;4420032;32;21111;-70
2022/06/19 00:22:40;;;;;;;;;;;;;;;27.67;27.52;100764.06;4422703;32;19997;-70
2022/06/19 00:25:07;;;;;;;;;;;;;;;27.47;27.77;100778.41;4419742;32;19998;-70
2022/06/19 00:27:37;;;;;;;;;;;;;;;28.02;27.41;100786.75;4420384;32;20044;-70
2022/06/19 00:30:04;;;;;;;;;;;;;;;28.04;27.56;100780.41;4421804;32;19979;-70
2022/06/19 00:32:29;;;;;;;;;;;;;;;28.07;27.23;100782.94;4420227;32;20044;-70
2022/06/19 00:34:55;;;;;;;;;;;;;;;27.83;27.71;100785.28;4420178;32;19953;-70
2022/06/19 00:37:21;;;;;;;;;;;;;;;28.12;27.38;100775.47;4420141;32;19972;-70
2022/06/19 00:39:46;;;;;;;;;;;;;;;28.13;27.20;100771.25;4420761;32;20144;-70
2022/06/19 00:42:13;;;;;;;;;;;;;;;28.22;27.29;100762.09;4421678;32;19965;-70
2022/06/19 00:44:38;;;;;;;;;;;;;;;28.17;27.39;100769.56;4419674;32;20060;-70
2022/06/19 00:47:08;;;;;;;;;;;;;;;28.06;27.44;100772.72;4422791;32;20428;-70
2022/06/19 00:49:36;;;;;;;;;;;;;;;28.01;27.77;100773.59;4418918;32;19977;-70
2022/06/19 00:52:20;;;;;;;;;;;;;;;28.19;27.38;100769.00;4422524;32;20007;-70
2022/06/19 00:54:48;;;;;;;;;;;;;;;28.14;27.71;100764.91;4419389;32;20432;-70
2022/06/19 00:57:15;;;;;;;;;;;;;;;28.05;28.07;100771.16;4419866;32;20825;-70
2022/06/19 00:59:43;;;;;;;;;;;;;;;27.87;28.28;100766.28;4419739;32;20366;-70
2022/06/19 01:02:09;;;;;;;;;;;;;;;27.97;28.28;100767.38;4421870;32;20413;-70
2022/06/19 01:04:38;;;;;;;;;;;;;;;27.84;28.34;100760.81;4419295;32;20061;-70
2022/06/19 01:07:05;;;;;;;;;;;;;;;27.92;28.38;100761.72;4420116;32;20014;-70
2022/06/19 01:09:31;;;;;;;;;;;;;;;27.66;28.54;100736.47;4420820;32;20008;-70
2022/06/19 01:11:57;;;;;;;;;;;;;;;27.79;28.18;100735.69;4420067;32;20011;-70
2022/06/19 01:14:23;;;;;;;;;;;;;;;27.72;28.34;100736.34;4419172;32;20011;-70
2022/06/19 01:16:49;;;;;;;;;;;;;;;27.72;28.39;100725.56;4420689;32;20030;-70
2022/06/19 01:19:20;;;;;;;;;;;;;;;27.57;28.69;100728.25;4419302;32;19961;-70
2022/06/19 01:21:49;;;;;;;;;;;;;;;27.46;28.79;100727.72;4421028;32;19996;-70
2022/06/19 01:26:52;;;;;;;;;;;;;;;27.50;28.71;100720.25;3948076;32;15773460;-70
2022/06/19 01:29:19;;;;;;;;;;;;;;;27.32;28.99;100721.16;4428913;32;20322;-70
2022/06/19 01:31:47;;;;;;;;;;;;;;;27.30;29.05;100714.38;4434120;32;20333;-70
2022/06/19 01:34:48;;;;;;;;;;;;;;;27.12;29.10;100702.34;4428990;32;20001;-70
2022/06/19 01:39:44;;;;;;;;;;;;;;;27.12;29.23;100713.91;3952012;32;15724290;-69
2022/06/19 01:42:11;;;;;;;;;;;;;;;27.21;29.21;100712.66;4430422;32;19972;-69
2022/06/19 01:44:37;;;;;;;;;;;;;;;27.18;29.11;100708.78;4425242;32;20035;-69
2022/06/19 01:47:04;;;;;;;;;;;;;;;27.09;29.45;100708.47;4427455;32;19961;-69
2022/06/19 01:49:30;;;;;;;;;;;;;;;26.90;29.83;100697.00;4426778;32;19987;-69
2022/06/19 01:51:56;;;;;;;;;;;;;;;27.14;29.54;100696.00;4428298;32;20344;-69
2022/06/19 01:54:24;;;;;;;;;;;;;;;27.08;29.27;100686.66;4428412;32;20053;-69
2022/06/19 01:56:51;;;;;;;;;;;;;;;26.95;29.60;100673.00;4423586;32;20502;-69
2022/06/19 01:59:17;;;;;;;;;;;;;;;26.92;29.94;100664.66;4425244;32;19989;-71
2022/06/19 02:01:43;;;;;;;;;;;;;;;27.03;29.88;100673.88;4429112;32;19953;-70
2022/06/19 02:04:09;;;;;;;;;;;;;;;27.07;29.87;100677.25;4426030;32;19993;-70
2022/06/19 02:06:37;;;;;;;;;;;;;;;26.97;29.99;100673.22;4424764;32;19979;-69
2022/06/19 02:09:03;;;;;;;;;;;;;;;26.95;29.96;100675.09;4425856;32;19972;-69
2022/06/19 02:11:30;;;;;;;;;;;;;;;27.01;29.81;100679.47;4426656;32;20011;-69
2022/06/19 02:13:58;;;;;;;;;;;;;;;27.12;29.46;100679.22;4426111;32;19976;-69
2022/06/19 02:16:24;;;;;;;;;;;;;;;27.16;29.15;100690.47;4428693;32;20042;-69
2022/06/19 02:18:51;;;;;;;;;;;;;;;26.95;29.42;100692.44;4426110;32;20027;-69
2022/06/19 02:21:18;;;;;;;;;;;;;;;26.71;29.85;100681.06;4427843;32;19984;-69
2022/06/19 02:23:44;;;;;;;;;;;;;;;26.76;29.71;100675.22;4427390;32;19969;-69
2022/06/19 02:26:10;;;;;;;;;;;;;;;26.82;29.52;100680.87;4425026;32;19969;-69
2022/06/19 02:28:37;;;;;;;;;;;;;;;26.80;29.33;100680.66;4430014;32;20521;-69
2022/06/19 02:31:03;;;;;;;;;;;;;;;26.81;29.59;100670.63;4425551;32;20570;-69
2022/06/19 02:33:30;;;;;;;;;;;;;;;26.95;29.50;100664.34;4413375;32;20280;-69
2022/06/19 02:35:57;;;;;;;;;;;;;;;26.83;29.44;100659.31;4424757;32;20007;-69
2022/06/19 02:38:23;;;;;;;;;;;;;;;26.59;29.65;100654.50;4427067;32;20494;-69
2022/06/19 02:43:28;;;;;;;;;;;;;;;26.73;29.70;100655.31;3962287;31;15717454;-70
2022/06/19 02:45:54;;;;;;;;;;;;;;;26.73;29.70;100655.31;4435147;32;20021;-70
2022/06/19 02:50:58;;;;;;;;;;;;;;;26.68;29.78;100662.75;3957894;31;15716064;-70
2022/06/19 02:53:25;;;;;;;;;;;;;;;26.39;29.75;100660.09;4439579;32;19997;-70
2022/06/19 02:55:51;;;;;;;;;;;;;;;26.31;29.65;100659.19;4439203;32;19979;-70
2022/06/19 02:58:19;;;;;;;;;;;;;;;25.82;30.14;100644.22;4440066;32;20536;-70
2022/06/19 03:00:46;;;;;;;;;;;;;;;25.97;29.79;100653.16;4435781;32;20073;-70
2022/06/19 03:03:16;;;;;;;;;;;;;;;26.08;29.73;100655.13;4440535;32;20012;-70
2022/06/19 03:05:42;;;;;;;;;;;;;;;26.25;29.54;100650.63;4438676;32;19985;-70
2022/06/19 03:08:08;;;;;;;;;;;;;;;26.10;29.81;100644.59;4441654;32;20341;-70
2022/06/19 03:10:34;;;;;;;;;;;;;;;25.88;30.31;100652.75;4441866;32;19960;-70
2022/06/19 03:13:00;;;;;;;;;;;;;;;26.12;29.89;100655.56;4440762;32;20000;-69
2022/06/19 03:15:25;;;;;;;;;;;;;;;26.08;29.88;100647.22;4442376;32;20389;-70
2022/06/19 03:17:51;;;;;;;;;;;;;;;26.12;29.81;100647.69;4439124;32;20001;-70
2022/06/19 03:20:19;;;;;;;;;;;;;;;25.94;30.00;100653.47;4443965;32;20678;-70
2022/06/19 03:22:45;;;;;;;;;;;;;;;25.97;30.02;100652.38;4438365;32;19961;-70
2022/06/19 03:25:10;;;;;;;;;;;;;;;26.06;29.87;100652.00;4437954;32;20291;-70
2022/06/19 03:27:36;;;;;;;;;;;;;;;26.02;29.89;100660.97;4439317;32;19957;-70
2022/06/19 03:30:01;;;;;;;;;;;;;;;26.06;29.92;100675.06;4437716;32;20003;-70
2022/06/19 03:32:27;;;;;;;;;;;;;;;26.01;29.98;100659.41;4438339;32;20004;-70
2022/06/19 03:34:53;;;;;;;;;;;;;;;25.94;30.19;100662.09;4438642;32;20005;-70
2022/06/19 03:37:19;;;;;;;;;;;;;;;26.12;29.78;100664.22;4437452;32;19953;-70
2022/06/19 03:39:44;;;;;;;;;;;;;;;25.92;30.00;100647.47;4442743;32;20010;-70
2022/06/19 03:42:11;;;;;;;;;;;;;;;25.88;30.03;100653.56;4436814;32;19952;-70
2022/06/19 03:44:36;;;;;;;;;;;;;;;25.77;29.86;100655.84;4439516;32;20053;-70
2022/06/19 03:47:02;;;;;;;;;;;;;;;25.90;29.63;100650.91;4433375;32;20451;-70
2022/06/19 03:49:27;;;;;;;;;;;;;;;25.77;29.80;100647.19;4438638;32;20065;-70
2022/06/19 03:51:53;;;;;;;;;;;;;;;25.99;29.31;100661.28;4440320;32;20061;-70
2022/06/19 03:54:19;;;;;;;;;;;;;;;25.86;29.46;100661.97;4439947;32;19968;-70
2022/06/19 03:56:45;;;;;;;;;;;;;;;25.77;29.56;100652.94;4438150;32;20008;-70
2022/06/19 03:59:12;;;;;;;;;;;;;;;25.77;29.50;100645.06;4439876;32;20643;-70
2022/06/19 04:01:40;;;;;;;;;;;;;;;25.63;29.46;100654.97;4430571;32;20011;-70
2022/06/19 04:04:06;;;;;;;;;;;;;;;25.70;29.60;100651.47;4428439;32;19971;-70
2022/06/19 04:06:33;;;;;;;;;;;;;;;25.40;30.20;100636.41;4429418;32;20004;-70
2022/06/19 04:08:59;;;;;;;;;;;;;;;25.63;29.79;100639.78;4427630;32;20054;-70
2022/06/19 04:11:25;;;;;;;;;;;;;;;25.96;29.42;100642.97;4428415;32;19961;-70
2022/06/19 04:13:54;;;;;;;;;;;;;;;26.12;29.39;100650.59;4427511;32;20019;-70
2022/06/19 04:16:21;;;;;;;;;;;;;;;26.02;29.38;100637.91;4432054;32;20045;-70
2022/06/19 04:18:47;;;;;;;;;;;;;;;25.84;29.66;100626.38;4428378;32;20005;-70
2022/06/19 04:21:15;;;;;;;;;;;;;;;26.17;29.21;100648.94;4427537;32;19971;-70
2022/06/19 04:23:41;;;;;;;;;;;;;;;26.35;29.10;100665.44;4428771;32;19992;-70
2022/06/19 04:26:09;;;;;;;;;;;;;;;25.95;29.29;100666.56;4430503;32;20008;-69
2022/06/19 04:28:34;;;;;;;;;;;;;;;26.11;29.55;100666.31;4429001;32;19962;-69
2022/06/19 04:31:00;;;;;;;;;;;;;;;26.18;29.42;100683.00;4429739;32;20012;-69
2022/06/19 04:33:25;;;;;;;;;;;;;;;26.14;29.04;100671.00;4425252;32;20213;-69
2022/06/19 04:35:51;;;;;;;;;;;;;;;26.26;29.37;100651.41;4427676;32;20521;-69
2022/06/19 04:38:16;;;;;;;;;;;;;;;26.37;28.98;100654.88;4431555;32;20315;-69
2022/06/19 04:40:42;;;;;;;;;;;;;;;26.34;29.22;100655.19;4427918;32;20068;-69
2022/06/19 04:43:09;;;;;;;;;;;;;;;26.41;29.01;100671.84;4428050;32;19992;-69
2022/06/19 04:45:35;;;;;;;;;;;;;;;26.45;28.98;100669.44;4425133;32;19997;-69
2022/06/19 04:48:00;;;;;;;;;;;;;;;26.67;28.77;100664.09;4428176;32;20016;-69
2022/06/19 04:50:26;;;;;;;;;;;;;;;26.80;28.58;100669.88;4430657;32;20216;-69
2022/06/19 04:52:51;;;;;;;;;;;;;;;26.82;28.35;100672.97;4430895;32;20000;-69
2022/06/19 04:55:17;;;;;;;;;;;;;;;27.29;27.69;100670.25;4427112;32;19957;-69
2022/06/19 04:57:43;;;;;;;;;;;;;;;27.37;27.62;100676.94;4426409;32;20189;-69
2022/06/19 05:00:12;;;;;;;;;;;;;;;27.72;27.17;100673.53;4427068;32;19964;-69
2022/06/19 05:02:38;;;;;;;;;;;;;;;27.67;27.23;100667.87;4428674;32;20422;-69
2022/06/19 05:05:05;;;;;;;;;;;;;;;27.86;27.01;100665.62;4427072;32;20055;-69
2022/06/19 05:07:32;;;;;;;;;;;;;;;27.86;27.05;100666.41;4429002;32;20053;-69
2022/06/19 05:09:58;;;;;;;;;;;;;;;27.81;27.15;100664.37;4428659;32;19958;-69
2022/06/19 05:12:23;;;;;;;;;;;;;;;27.99;26.71;100672.13;4426383;32;20385;-69
2022/06/19 05:14:49;;;;;;;;;;;;;;;28.47;26.62;100673.63;4427805;32;20004;-69
2022/06/19 05:17:14;;;;;;;;;;;;;;;28.81;26.00;100680.09;4426866;32;20396;-69
2022/06/19 05:19:41;;;;;;;;;;;;;;;28.92;26.05;100673.97;4430320;32;20295;-69
2022/06/19 05:22:06;;;;;;;;;;;;;;;29.29;25.64;100684.31;4426844;32;20358;-69
2022/06/19 05:24:32;;;;;;;;;;;;;;;29.13;25.11;100673.94;4426221;32;19965;-69
2022/06/19 05:26:57;;;;;;;;;;;;;;;29.26;24.90;100680.41;4426995;32;19993;-69
2022/06/19 05:29:23;;;;;;;;;;;;;;;29.27;25.35;100676.19;4427457;32;19945;-69
2022/06/19 05:31:50;;;;;;;;;;;;;;;29.67;24.75;100673.72;4428649;32;19993;-69
2022/06/19 05:34:15;;;;;;;;;;;;;;;29.76;24.55;100671.03;4425425;32;20305;-69
2022/06/19 05:36:41;;;;;;;;;;;;;;;29.53;24.88;100670.13;4429829;32;19989;-69
2022/06/19 05:39:07;;;;;;;;;;;;;;;29.54;24.98;100665.88;4427997;32;20011;-69
2022/06/19 05:41:34;;;;;;;;;;;;;;;29.34;24.84;100663.06;4428309;32;20045;-69
2022/06/19 05:43:59;;;;;;;;;;;;;;;29.44;24.92;100652.47;4427260;32;21082;-69
2022/06/19 05:46:24;;;;;;;;;;;;;;;29.51;24.53;100640.16;4425373;32;20354;-69
2022/06/19 05:48:50;;;;;;;;;;;;;;;29.23;25.09;100640.22;4427417;32;19976;-69
2022/06/19 05:51:18;;;;;;;;;;;;;;;29.27;25.21;100658.81;4428445;32;19961;-69
2022/06/19 05:53:45;;;;;;;;;;;;;;;29.29;25.55;100658.22;4425174;32;20480;-69
2022/06/19 05:56:11;;;;;;;;;;;;;;;29.65;25.31;100664.78;4427601;32;20020;-69
2022/06/19 05:58:37;;;;;;;;;;;;;;;29.92;25.11;100661.03;4427902;32;19961;-69
2022/06/19 06:01:03;;;;;;;;;;;;;;;29.91;24.83;100647.09;4426951;32;19994;-69
2022/06/19 06:03:29;;;;;;;;;;;;;;;30.12;24.49;100660.09;4426215;32;20259;-69
2022/06/19 06:05:59;;;;;;;;;;;;;;;30.23;24.40;100656.09;4427313;32;19969;-69
2022/06/19 06:08:25;;;;;;;;;;;;;;;29.85;24.95;100655.97;4430834;32;19993;-69
2022/06/19 06:10:50;;;;;;;;;;;;;;;30.19;24.58;100647.75;4425339;32;20044;-69
2022/06/19 06:13:17;;;;;;;;;;;;;;;30.82;23.97;100651.69;4425623;32;19977;-71
2022/06/19 06:15:43;;;;;;;;;;;;;;;30.71;23.65;100663.69;4426559;32;20412;-70
2022/06/19 06:18:09;;;;;;;;;;;;;;;30.50;23.83;100675.47;4425326;32;20034;-70
2022/06/19 06:20:35;;;;;;;;;;;;;;;29.71;24.53;100679.91;4427040;32;20461;-69
2022/06/19 06:23:01;;;;;;;;;;;;;;;30.33;23.83;100671.59;4425894;32;20336;-70
2022/06/19 06:25:26;;;;;;;;;;;;;;;30.38;23.77;100667.72;4423940;32;20412;-70
2022/06/19 06:27:52;;;;;;;;;;;;;;;30.49;23.84;100659.41;4426314;32;20024;-70
2022/06/19 06:30:17;;;;;;;;;;;;;;;30.22;24.07;100669.81;4427367;32;19957;-70
2022/06/19 06:32:43;;;;;;;;;;;;;;;30.08;23.99;100674.22;4428444;32;19965;-70
2022/06/19 06:35:08;;;;;;;;;;;;;;;29.58;24.81;100677.13;4424296;32;19957;-70
2022/06/19 06:37:35;;;;;;;;;;;;;;;30.61;23.42;100669.28;4426779;32;20050;-70
2022/06/19 06:40:01;;;;;;;;;;;;;;;31.04;23.25;100668.31;4427094;32;20031;-70
2022/06/19 06:42:26;;;;;;;;;;;;;;;31.16;23.03;100665.78;4428349;32;19961;-70
2022/06/19 06:44:52;;;;;;;;;;;;;;;31.29;23.07;100675.06;4427050;32;20031;-70
2022/06/19 06:47:17;;;;;;;;;;;;;;;31.46;22.60;100677.34;4424728;32;20023;-70
2022/06/19 06:49:43;;;;;;;;;;;;;;;32.07;22.03;100681.59;4427613;32;19992;-70
2022/06/19 06:52:09;;;;;;;;;;;;;;;31.48;22.45;100672.53;4426102;32;19961;-70
2022/06/19 06:54:36;;;;;;;;;;;;;;;31.52;22.28;100667.06;4427579;32;20004;-70
2022/06/19 06:57:02;;;;;;;;;;;;;;;31.98;22.05;100683.00;4426499;32;20000;-70
2022/06/19 06:59:28;;;;;;;;;;;;;;;31.67;22.39;100678.66;4427014;32;20249;-70
2022/06/19 07:01:53;;;;;;;;;;;;;;;31.49;22.54;100679.88;4426207;32;20070;-70
2022/06/19 07:04:19;;;;;;;;;;;;;;;30.10;24.00;100676.56;4425874;32;20388;-70
2022/06/19 07:06:44;;;;;;;;;;;;;;;30.25;24.07;100676.63;4426615;32;20547;-70
2022/06/19 07:09:10;;;;;;;;;;;;;;;30.26;24.02;100678.94;4429356;32;20012;-70
2022/06/19 07:11:38;;;;;;;;;;;;;;;30.24;23.72;100683.75;4430382;32;20018;-70
2022/06/19 07:14:04;;;;;;;;;;;;;;;31.21;23.06;100679.34;4425580;32;20340;-70
2022/06/19 07:16:31;;;;;;;;;;;;;;;31.64;22.46;100665.28;4427481;32;20001;-70
2022/06/19 07:18:56;;;;;;;;;;;;;;;32.00;22.14;100671.50;4428465;32;19972;-70
2022/06/19 07:21:22;;;;;;;;;;;;;;;31.90;22.34;100672.75;4428683;32;20213;-70
2022/06/19 07:23:47;;;;;;;;;;;;;;;31.84;21.93;100675.88;4423269;32;20270;-70
2022/06/19 07:26:15;;;;;;;;;;;;;;;31.99;22.14;100669.97;4424947;32;20005;-70
2022/06/19 07:28:41;;;;;;;;;;;;;;;31.61;22.47;100666.47;4426966;32;20000;-70
2022/06/19 07:31:07;;;;;;;;;;;;;;;31.99;21.97;100666.28;4426568;32;19952;-70
2022/06/19 07:33:34;;;;;;;;;;;;;;;32.61;21.46;100666.09;4428172;32;19971;-70
2022/06/19 07:36:00;;;;;;;;;;;;;;;32.75;21.12;100661.50;4428156;32;20028;-70
2022/06/19 07:38:25;;;;;;;;;;;;;;;31.84;22.09;100667.13;4429035;32;20501;-70
2022/06/19 07:40:51;;;;;;;;;;;;;;;32.30;21.54;100653.84;4428889;32;19993;-70
2022/06/19 07:43:17;;;;;;;;;;;;;;;32.66;20.80;100656.31;4428855;32;20313;-70
2022/06/19 07:45:42;;;;;;;;;;;;;;;32.00;21.44;100667.84;4429921;32;19985;-70
2022/06/19 07:50:54;;;;;;;;;;;;;;;31.83;21.63;100668.50;4429050;32;19953;-70
2022/06/19 07:53:20;;;;;;;;;;;;;;;32.17;21.35;100674.53;4427762;32;20050;-70
2022/06/19 07:55:45;;;;;;;;;;;;;;;30.95;22.78;100674.72;4429060;32;19976;-70
2022/06/19 07:58:11;;;;;;;;;;;;;;;31.98;21.90;100671.34;4424753;32;20015;-70
2022/06/19 08:00:37;;;;;;;;;;;;;;;32.46;21.30;100669.12;4428399;32;20083;-70
2022/06/19 08:03:03;;;;;;;;;;;;;;;32.05;21.63;100669.75;4431543;32;19968;-70
2022/06/19 08:05:30;;;;;;;;;;;;;;;31.29;22.69;100665.59;4426882;32;20300;-70
2022/06/19 08:07:57;;;;;;;;;;;;;;;30.60;23.68;100672.78;4429411;32;20547;-69
2022/06/19 08:10:25;;;;;;;;;;;;;;;30.93;23.32;100670.84;4429090;32;19993;-69
2022/06/19 08:12:51;;;;;;;;;;;;;;;30.99;23.30;100665.62;4430638;32;19959;-69
2022/06/19 08:15:18;;;;;;;;;;;;;;;31.10;23.38;100663.06;4427769;32;20394;-69
2022/06/19 08:17:45;;;;;;;;;;;;;;;31.01;23.40;100663.66;4421946;32;20457;-69
2022/06/19 08:20:12;;;;;;;;;;;;;;;31.50;23.11;100661.06;4426812;32;19961;-69
2022/06/19 08:22:38;;;;;;;;;;;;;;;31.25;23.39;100660.13;4430626;32;20060;-69
2022/06/19 08:25:04;;;;;;;;;;;;;;;32.01;22.63;100663.56;4428448;32;20084;-69
2022/06/19 08:27:30;;;;;;;;;;;;;;;32.44;22.06;100655.16;4428478;32;20392;-69
2022/06/19 08:29:56;;;;;;;;;;;;;;;32.78;21.80;100647.88;4430487;32;19977;-69
2022/06/19 08:32:21;;;;;;;;;;;;;;;33.33;21.21;100657.03;4426536;32;19992;-69
2022/06/19 08:34:47;;;;;;;;;;;;;;;33.02;21.62;100665.34;4427416;32;20254;-69
2022/06/19 08:37:12;;;;;;;;;;;;;;;33.33;21.40;100660.75;4432563;32;19945;-69
2022/06/19 08:39:38;;;;;;;;;;;;;;;33.76;20.89;100659.28;4432106;32;20012;-69
2022/06/19 08:42:23;;;;;;;;;;;;;;;33.61;21.02;100669.00;4428495;32;20322;-69
2022/06/19 08:47:45;;;;;;;;;;;;;;;32.57;22.52;100663.59;3939936;32;15723556;-69
2022/06/19 08:50:31;;;;;;;;;;;;;;;32.57;22.52;100663.59;4409786;32;19969;-69
2022/06/19 08:53:17;;;;;;;;;;;;;;;32.90;21.99;100661.38;4411018;32;19961;-69
2022/06/19 09:01:08;;;;;;;;;;;;;;;32.70;22.08;100650.09;3965741;31;15718725;-69
2022/06/19 09:06:32;;;;;;;;;;;;;;;32.34;22.33;100644.75;4448316;32;19960;-69
2022/06/19 09:09:10;;;;;;;;;;;;;;;33.22;21.53;100648.81;4450565;32;20357;-69
2022/06/19 09:14:35;;;;;;;;;;;;;;;35.55;19.57;100639.38;3949548;32;15722427;-69
2022/06/19 09:17:20;;;;;;;;;;;;;;;35.55;19.57;100639.38;4426415;32;19968;-69
2022/06/19 09:22:43;;;;;;;;;;;;;;;37.85;16.82;100649.38;3951525;32;15725569;-68
2022/06/19 09:25:28;;;;;;;;;;;;;;;37.85;16.82;100649.38;4414390;32;19965;-69
2022/06/19 09:27:59;;;;;;;;;;;;;;;37.10;17.06;100642.72;4430196;32;20002;-69
2022/06/19 09:30:29;;;;;;;;;;;;;;;37.77;16.41;100652.53;4432117;32;20008;-69
2022/06/19 09:32:59;;;;;;;;;;;;;;;37.48;16.72;100651.22;4429721;32;20342;-69
2022/06/19 09:35:26;;;;;;;;;;;;;;;37.47;16.72;100658.50;4431268;32;20053;-69
2022/06/19 09:40:31;;;;;;;;;;;;;;;35.03;18.50;100647.78;3957001;32;15723260;-68
2022/06/19 09:43:00;;;;;;;;;;;;;;;35.03;18.50;100647.78;4442833;32;19968;-69
2022/06/19 09:45:29;;;;;;;;;;;;;;;33.69;19.96;100637.56;4439373;32;19957;-68
2022/06/19 09:48:03;;;;;;;;;;;;;;;33.41;20.40;100657.78;4436983;32;20068;-69
2022/06/19 09:50:34;;;;;;;;;;;;;;;32.92;21.08;100669.53;4440262;32;20303;-68
2022/06/19 09:53:06;;;;;;;;;;;;;;;33.12;21.02;100656.69;4430528;32;20018;-68
2022/06/19 09:55:37;;;;;;;;;;;;;;;33.13;20.95;100659.00;4439205;32;20012;-69
2022/06/19 09:58:06;;;;;;;;;;;;;;;32.90;21.23;100664.31;4442994;32;19990;-69
2022/06/19 10:00:34;;;;;;;;;;;;;;;34.59;19.60;100675.62;4437574;32;20114;-68
2022/06/19 10:05:38;;;;;;;;;;;;;;;35.25;18.78;100681.69;3949205;32;15723090;-69
2022/06/19 10:08:24;;;;;;;;;;;;;;;35.25;18.78;100681.69;4433949;32;20001;-69
2022/06/19 10:10:52;;;;;;;;;;;;;;;35.11;18.77;100688.59;4432546;32;19992;-69
2022/06/19 10:13:24;;;;;;;;;;;;;;;33.80;19.71;100692.50;4432335;32;20051;-69
2022/06/19 10:15:51;;;;;;;;;;;;;;;33.41;20.33;100684.03;4432124;32;19949;-69
2022/06/19 10:18:23;;;;;;;;;;;;;;;34.54;19.40;100697.91;4431028;32;20001;-69
2022/06/19 10:20:57;;;;;;;;;;;;;;;33.23;20.43;100694.91;4431006;32;19985;-69
2022/06/19 10:26:07;;;;;;;;;;;;;;;34.50;19.61;100679.28;3949499;32;15721553;-68
2022/06/19 10:28:53;;;;;;;;;;;;;;;35.07;18.98;100688.28;4429648;32;20000;-68
2022/06/19 10:31:40;;;;;;;;;;;;;;;35.88;17.97;100685.13;4429017;32;19961;-69
2022/06/19 10:37:04;;;;;;;;;;;;;;;37.12;16.97;100681.75;3949905;32;15723590;-69
2022/06/19 10:55:21;;;;;;;;;;;;;;;36.50;17.33;100659.69;3949973;32;15725535;-69
2022/06/19 11:00:23;;;;;;;;;;;;;;;36.08;17.69;100660.25;3950897;32;15723891;-69
2022/06/19 11:05:42;;;;;;;;;;;;;;;36.34;17.42;100657.75;4427746;32;20001;-69
2022/06/19 11:08:08;;;;;;;;;;;;;;;37.72;15.82;100662.50;4430014;32;20346;-69
2022/06/19 11:13:10;;;;;;;;;;;;;;;37.77;15.44;100678.22;3949153;32;15722634;-69
2022/06/19 11:15:40;;;;;;;;;;;;;;;37.77;15.44;100678.22;4425867;32;19993;-69
2022/06/19 11:21:04;;;;;;;;;;;;;;;35.87;18.38;100680.69;3949257;32;15740117;-68
2022/06/19 11:23:34;;;;;;;;;;;;;;;35.87;18.38;100680.69;4425803;32;19965;-68
2022/06/19 11:26:20;;;;;;;;;;;;;;;35.05;19.17;100682.25;4427322;32;20043;-68
2022/06/19 11:28:53;;;;;;;;;;;;;;;36.17;18.33;100682.16;4429243;32;20299;-68
2022/06/19 11:33:57;;;;;;;;;;;;;;;35.61;18.28;100696.22;3956415;32;15723555;-69
2022/06/19 11:36:25;;;;;;;;;;;;;;;35.61;18.28;100696.22;4439561;32;19957;-70
2022/06/19 11:38:54;;;;;;;;;;;;;;;34.89;18.44;100701.47;4443450;32;20280;-69
2022/06/19 11:46:50;;;;;;;;;;;;;;;35.98;17.44;100706.41;3948113;32;15724220;-69
2022/06/19 11:49:18;;;;;;;;;;;;;;;35.98;17.44;100706.41;4423937;32;19997;-69
2022/06/19 11:51:44;;;;;;;;;;;;;;;36.41;17.03;100704.47;4425687;32;19988;-69
2022/06/19 11:54:12;;;;;;;;;;;;;;;36.70;16.85;100707.28;4427704;32;20160;-69
2022/06/19 11:56:38;;;;;;;;;;;;;;;37.41;15.87;100708.78;4428515;32;20020;-69
2022/06/19 11:59:06;;;;;;;;;;;;;;;36.51;16.00;100710.31;4426054;32;19994;-68
2022/06/19 12:01:40;;;;;;;;;;;;;;;37.00;15.96;100721.22;4427961;32;20007;-68
2022/06/19 12:04:20;;;;;;;;;;;;;;;36.74;16.10;100714.25;4411315;32;20409;-68
2022/06/19 12:06:50;;;;;;;;;;;;;;;36.98;16.06;100715.22;4423828;32;20006;-68
2022/06/19 12:09:35;;;;;;;;;;;;;;;37.55;15.59;100709.00;4427285;32;20041;-69
2022/06/19 12:12:18;;;;;;;;;;;;;;;37.93;15.44;100703.59;4425591;32;19977;-69
2022/06/19 12:17:25;;;;;;;;;;;;;;;41.75;12.32;100721.44;3952738;31;15772751;-68
2022/06/19 12:22:36;;;;;;;;;;;;;;;44.82;10.52;100714.81;3958330;31;15719041;-69
2022/06/19 12:25:21;;;;;;;;;;;;;;;44.82;10.52;100714.81;4438645;32;20022;-69
2022/06/19 12:27:51;;;;;;;;;;;;;;;45.08;10.37;100721.78;4441223;32;19961;-70
2022/06/19 12:30:20;;;;;;;;;;;;;;;43.75;10.46;100718.50;4440197;32;20322;-70
2022/06/19 12:32:48;;;;;;;;;;;;;;;43.36;10.61;100717.44;4440430;32;19957;-70
2022/06/19 12:35:20;;;;;;;;;;;;;;;42.84;10.97;100707.69;4439221;32;20334;-70
2022/06/19 12:37:45;;;;;;;;;;;;;;;41.91;11.71;100697.84;4440055;32;19967;-70
2022/06/19 12:40:14;;;;;;;;;;;;;;;41.83;11.85;100698.19;4439574;32;20419;-69
2022/06/19 12:42:47;;;;;;;;;;;;;;;40.39;12.64;100713.88;4439108;32;20444;-69
2022/06/19 12:51:09;;;;;;;;;;;;;;;39.45;13.67;100700.19;3949213;32;15724663;-69
2022/06/19 12:56:30;;;;;;;;;;;;;;;39.31;14.16;100694.16;3950254;32;15725673;-70
2022/06/19 13:09:55;;;;;;;;;;;;;;;38.64;14.74;100685.50;3943858;32;15935629;-70
2022/06/19 13:12:41;;;;;;;;;;;;;;;38.64;14.74;100685.50;4425910;32;19958;-69
2022/06/19 13:17:53;;;;;;;;;;;;;;;39.07;14.94;100677.19;3949120;32;15726649;-70
2022/06/19 13:20:28;;;;;;;;;;;;;;;39.07;14.94;100677.19;4426479;32;19957;-70
2022/06/19 13:28:26;;;;;;;;;;;;;;;38.42;15.33;100689.94;3951256;32;15743562;-70
2022/06/19 13:30:57;;;;;;;;;;;;;;;38.50;15.31;100689.69;4427775;32;19949;-70
2022/06/19 13:36:05;;;;;;;;;;;;;;;39.02;15.22;100699.72;3949175;32;15722464;-69
2022/06/19 13:38:44;;;;;;;;;;;;;;;39.02;15.22;100699.72;4429066;32;20379;-69
2022/06/19 13:41:22;;;;;;;;;;;;;;;38.08;15.88;100705.28;4429529;32;20396;-69
2022/06/19 13:46:43;;;;;;;;;;;;;;;38.07;15.98;100700.81;3955782;32;15725325;-69
2022/06/19 13:54:29;;;;;;;;;;;;;;;38.96;14.93;100716.97;3969358;32;15726574;-68
2022/06/19 13:57:02;;;;;;;;;;;;;;;38.96;14.93;100716.97;4452503;32;19968;-70
2022/06/19 14:13:09;;;;;;;;;;;;;;;38.19;16.36;100712.63;3950350;32;15725172;-70
2022/06/19 14:18:32;;;;;;;;;;;;;;;37.86;16.65;100707.50;3950089;32;15722575;-70
2022/06/19 14:23:55;;;;;;;;;;;;;;;37.75;16.77;100710.38;3931164;32;15726241;-69
2022/06/19 14:31:33;;;;;;;;;;;;;;;37.29;17.37;100710.88;3950673;32;15725607;-70
2022/06/19 14:33:58;;;;;;;;;;;;;;;37.29;17.37;100710.88;4424759;32;19961;-70
2022/06/19 14:36:26;;;;;;;;;;;;;;;37.38;17.06;100706.34;4425676;32;20029;-69
2022/06/19 14:38:56;;;;;;;;;;;;;;;37.91;16.68;100705.59;4426589;32;19997;-69
2022/06/19 14:46:55;;;;;;;;;;;;;;;37.95;16.32;100705.88;3949878;32;15722408;-70
2022/06/19 14:52:17;;;;;;;;;;;;;;;38.43;15.80;100709.09;3956399;32;15723161;-69
2022/06/19 14:55:02;;;;;;;;;;;;;;;38.43;15.80;100709.09;4428746;32;20207;-70
2022/06/19 14:57:41;;;;;;;;;;;;;;;38.24;16.00;100711.47;4433610;32;19997;-69
2022/06/19 15:03:01;;;;;;;;;;;;;;;38.79;15.73;100702.66;3961712;31;15720549;-70
2022/06/19 15:10:51;;;;;;;;;;;;;;;40.47;14.83;100705.50;3951857;32;15723460;-70
2022/06/19 15:15:54;;;;;;;;;;;;;;;42.11;13.25;100702.59;3951972;32;15715903;-70
2022/06/19 15:18:21;;;;;;;;;;;;;;;42.11;13.25;100702.59;4430054;32;19992;-70
2022/06/19 15:21:05;;;;;;;;;;;;;;;41.18;13.80;100699.16;4431172;32;19949;-70